createdAt,value
2022-11-29T00:00:41.684Z,80.8
2022-11-29T00:01:41.699Z,80.8
2022-11-29T00:02:42.107Z,80.7
2022-11-29T00:03:41.711Z,80.7
2022-11-29T00:04:42.678Z,80.7
2022-11-29T00:05:41.736Z,80.7
2022-11-29T00:06:41.755Z,80.6
2022-11-29T00:07:41.883Z,80.6
2022-11-29T00:08:41.769Z,80.6
2022-11-29T00:09:41.787Z,80.5
2022-11-29T00:10:41.804Z,80.5
2022-11-29T00:11:41.813Z,80.5
2022-11-29T00:12:41.818Z,80.4
2022-11-29T00:13:41.829Z,80.5
2022-11-29T00:14:43.121Z,80.6
2022-11-29T00:15:41.861Z,80.4
2022-11-29T00:16:42.045Z,80.4
2022-11-29T00:17:41.872Z,80.4
2022-11-29T00:18:41.889Z,80.4
2022-11-29T00:19:41.899Z,80.4
2022-11-29T00:20:41.918Z,80.4
2022-11-29T00:21:41.922Z,80.4
2022-11-29T00:22:41.928Z,80.4
2022-11-29T00:23:41.946Z,80.4
2022-11-29T00:24:43.134Z,80.4
2022-11-29T00:25:41.970Z,80.4
2022-11-29T00:26:41.995Z,80.5
2022-11-29T00:27:42.004Z,80.4
2022-11-29T00:28:42.015Z,80.5
2022-11-29T00:29:42.021Z,80.5
2022-11-29T00:30:42.295Z,80.5
2022-11-29T00:31:42.056Z,80.5
2022-11-29T00:32:42.054Z,80.5
2022-11-29T00:33:42.080Z,80.6
2022-11-29T00:34:43.285Z,80.4
2022-11-29T00:35:42.091Z,80.5
2022-11-29T00:36:42.109Z,80.6
2022-11-29T00:37:42.119Z,80.6
2022-11-29T00:38:42.135Z,80.5
2022-11-29T00:39:42.155Z,80.5
2022-11-29T00:40:42.164Z,80.5
2022-11-29T00:41:42.181Z,80.5
2022-11-29T00:42:42.189Z,80.6
2022-11-29T00:43:42.211Z,80.6
2022-11-29T00:44:43.315Z,80.6
2022-11-29T00:45:42.395Z,80.6
2022-11-29T00:46:42.224Z,80.6
2022-11-29T00:47:42.232Z,80.5
2022-11-29T00:48:42.251Z,80.4
2022-11-29T00:49:42.264Z,80.5
2022-11-29T00:50:42.274Z,80.5
2022-11-29T00:51:42.296Z,80.5
2022-11-29T00:52:42.307Z,80.5
2022-11-29T00:53:42.321Z,80.4
2022-11-29T00:54:43.576Z,80.5
2022-11-29T00:55:42.340Z,80.6
2022-11-29T00:56:42.345Z,80.6
2022-11-29T00:57:42.362Z,80.6
2022-11-29T00:58:42.366Z,80.6
2022-11-29T00:59:42.393Z,80.6
2022-11-29T01:00:42.398Z,80.6
2022-11-29T01:01:42.560Z,80.6
2022-11-29T01:02:42.586Z,80.6
2022-11-29T01:03:42.437Z,80.7
2022-11-29T01:04:43.531Z,80.6
2022-11-29T01:05:42.461Z,80.5
2022-11-29T01:06:42.490Z,80.6
2022-11-29T01:07:42.696Z,80.5
2022-11-29T01:08:42.496Z,80.5
2022-11-29T01:09:42.513Z,80.5
2022-11-29T01:10:42.518Z,80.6
2022-11-29T01:11:42.522Z,80.5
2022-11-29T01:12:42.530Z,80.5
2022-11-29T01:13:42.584Z,80.5
2022-11-29T01:14:43.734Z,80.6
2022-11-29T01:15:42.572Z,80.6
2022-11-29T01:16:42.839Z,80.6
2022-11-29T01:17:42.597Z,80.6
2022-11-29T01:18:42.626Z,80.6
2022-11-29T01:19:51.287Z,80.5
2022-11-29T01:20:42.636Z,80.5
2022-11-29T01:21:42.641Z,80.5
2022-11-29T01:22:42.653Z,80.5
2022-11-29T01:23:42.663Z,80.4
2022-11-29T01:24:43.462Z,80.5
2022-11-29T01:25:42.678Z,80.5
2022-11-29T01:26:42.697Z,80.5
2022-11-29T01:27:42.709Z,80.5
2022-11-29T01:28:42.723Z,80.5
2022-11-29T01:29:42.745Z,80.4
2022-11-29T01:47:43.293Z,80.1
2022-11-29T01:48:42.945Z,80.1
2022-11-29T01:49:42.942Z,80.1
2022-11-29T01:50:42.951Z,80.1
2022-11-29T01:51:42.977Z,80.1
2022-11-29T01:52:42.981Z,80.1
2022-11-29T01:53:43.001Z,80.1
2022-11-29T01:54:44.303Z,80.0
2022-11-29T01:55:43.457Z,80.0
2022-11-29T01:56:43.058Z,79.9
2022-11-29T01:57:43.055Z,79.7
2022-11-29T01:58:43.071Z,79.7
2022-11-29T01:59:43.074Z,79.7
2022-11-29T02:00:43.081Z,79.8
2022-11-29T02:01:43.387Z,79.8
2022-11-29T02:02:43.214Z,79.7
2022-11-29T02:03:43.122Z,79.7
2022-11-29T02:04:44.361Z,79.8
2022-11-29T02:05:43.133Z,79.8
2022-11-29T02:06:43.148Z,79.8
2022-11-29T02:07:43.344Z,79.9
2022-11-29T02:08:43.169Z,79.9
2022-11-29T02:09:43.330Z,80.0
2022-11-29T02:10:43.189Z,80.0
2022-11-29T02:11:43.209Z,79.9
2022-11-29T02:12:43.219Z,79.9
2022-11-29T02:13:43.237Z,79.9
2022-11-29T02:14:44.522Z,79.8
2022-11-29T02:15:43.411Z,79.8
2022-11-29T02:16:43.265Z,79.8
2022-11-29T02:17:43.285Z,79.9
2022-11-29T02:18:43.311Z,79.8
2022-11-29T02:19:43.325Z,79.9
2022-11-29T02:20:43.347Z,79.9
2022-11-29T02:21:43.364Z,79.9
2022-11-29T02:22:43.375Z,79.9
2022-11-29T02:23:43.386Z,79.9
2022-11-29T02:24:44.615Z,79.9
2022-11-29T02:25:43.429Z,79.8
2022-11-29T02:26:43.429Z,79.7
2022-11-29T02:27:43.449Z,79.8
2022-11-29T02:28:43.455Z,80.0
2022-11-29T02:29:43.474Z,80.1
2022-11-29T02:30:43.619Z,79.9
2022-11-29T02:31:43.505Z,80.0
2022-11-29T02:32:43.516Z,79.9
2022-11-29T02:33:43.532Z,80.0
2022-11-29T02:34:44.852Z,80.0
2022-11-29T02:35:43.567Z,79.9
2022-11-29T02:36:43.569Z,80.0
2022-11-29T02:37:43.572Z,80.1
2022-11-29T02:38:43.601Z,80.0
2022-11-29T02:39:43.594Z,79.9
2022-11-29T02:40:43.606Z,80.0
2022-11-29T02:41:43.636Z,79.9
2022-11-29T02:42:43.623Z,79.9
2022-11-29T02:43:43.634Z,79.9
2022-11-29T02:44:44.589Z,80.0
2022-11-29T02:45:43.861Z,80.1
2022-11-29T02:46:43.668Z,79.8
2022-11-29T02:47:43.679Z,80.0
2022-11-29T02:48:43.683Z,79.9
2022-11-29T02:49:43.698Z,79.8
2022-11-29T02:50:43.709Z,79.7
2022-11-29T02:51:43.720Z,79.8
2022-11-29T02:52:43.722Z,79.7
2022-11-29T02:53:43.737Z,79.7
2022-11-29T02:54:44.832Z,79.8
2022-11-29T02:55:43.778Z,79.9
2022-11-29T02:56:43.783Z,80.0
2022-11-29T02:57:43.811Z,79.9
2022-11-29T02:58:43.824Z,79.9
2022-11-29T02:59:43.829Z,79.8
2022-11-29T03:00:43.852Z,79.7
2022-11-29T03:01:43.970Z,79.7
2022-11-29T03:02:43.997Z,79.6
2022-11-29T03:03:43.891Z,79.7
2022-11-29T03:04:44.866Z,79.7
2022-11-29T03:05:43.910Z,79.7
2022-11-29T03:06:43.916Z,79.7
2022-11-29T03:07:44.070Z,79.6
2022-11-29T03:08:44.010Z,79.6
2022-11-29T03:09:43.955Z,79.5
2022-11-29T03:10:43.972Z,79.6
2022-11-29T03:11:43.989Z,79.5
2022-11-29T03:12:43.998Z,79.5
2022-11-29T03:13:44.016Z,79.4
2022-11-29T03:14:44.622Z,79.5
2022-11-29T03:15:44.136Z,79.5
2022-11-29T03:16:44.054Z,79.4
2022-11-29T03:17:44.055Z,79.3
2022-11-29T03:18:44.059Z,79.4
2022-11-29T03:19:44.069Z,79.3
2022-11-29T03:20:44.084Z,79.2
2022-11-29T03:21:44.111Z,79.4
2022-11-29T03:22:44.125Z,79.2
2022-11-29T03:23:44.142Z,79.3
2022-11-29T03:24:45.261Z,79.2
2022-11-29T03:25:44.177Z,79.2
2022-11-29T03:26:44.203Z,79.3
2022-11-29T03:27:44.220Z,79.4
2022-11-29T03:28:44.241Z,79.4
2022-11-29T03:29:44.263Z,79.3
2022-11-29T03:30:44.438Z,79.4
2022-11-29T03:31:44.281Z,79.5
2022-11-29T03:32:44.302Z,79.3
2022-11-29T03:33:44.313Z,79.3
2022-11-29T03:34:45.094Z,79.1
2022-11-29T03:35:44.339Z,79.3
2022-11-29T03:36:44.351Z,79.2
2022-11-29T03:37:44.369Z,79.2
2022-11-29T03:38:44.385Z,79.5
2022-11-29T03:39:44.438Z,79.4
2022-11-29T03:40:44.425Z,79.4
2022-11-29T03:41:44.425Z,79.3
2022-11-29T03:42:44.447Z,79.3
2022-11-29T03:43:44.471Z,79.2
2022-11-29T03:44:45.127Z,79.2
2022-11-29T03:45:44.512Z,79.2
2022-11-29T03:46:44.516Z,79.3
2022-11-29T03:47:44.544Z,79.5
2022-11-29T03:48:44.561Z,79.3
2022-11-29T03:49:44.571Z,79.3
2022-11-29T03:50:44.579Z,79.4
2022-11-29T03:51:44.588Z,79.1
2022-11-29T03:52:44.605Z,79.2
2022-11-29T03:53:44.610Z,79.3
2022-11-29T03:54:45.321Z,79.4
2022-11-29T03:55:44.654Z,79.3
2022-11-29T03:56:44.667Z,79.3
2022-11-29T03:57:44.687Z,79.4
2022-11-29T03:58:44.711Z,79.6
2022-11-29T03:59:44.729Z,79.5
2022-11-29T04:00:44.738Z,79.5
2022-11-29T04:01:44.988Z,79.4
2022-11-29T04:02:44.878Z,79.4
2022-11-29T04:03:44.771Z,79.2
2022-11-29T04:04:45.660Z,79.3
2022-11-29T04:05:44.789Z,79.3
2022-11-29T04:06:44.799Z,79.2
2022-11-29T04:07:45.179Z,79.1
2022-11-29T04:08:44.812Z,79.2
2022-11-29T04:09:44.814Z,79.4
2022-11-29T04:10:44.990Z,79.4
2022-11-29T04:11:44.829Z,79.6
2022-11-29T04:12:44.844Z,79.3
2022-11-29T04:13:44.849Z,79.4
2022-11-29T04:14:45.616Z,79.4
2022-11-29T04:15:44.980Z,79.4
2022-11-29T04:16:44.869Z,79.4
2022-11-29T04:17:44.872Z,79.4
2022-11-29T04:18:44.888Z,79.4
2022-11-29T04:19:44.888Z,79.4
2022-11-29T04:20:48.772Z,79.5
2022-11-29T04:21:44.902Z,79.4
2022-11-29T04:22:44.904Z,79.5
2022-11-29T04:23:44.906Z,79.5
2022-11-29T04:24:45.886Z,79.6
2022-11-29T04:25:44.921Z,79.5
2022-11-29T04:26:45.027Z,79.5
2022-11-29T04:27:44.932Z,79.5
2022-11-29T04:28:44.943Z,79.5
2022-11-29T04:29:44.946Z,79.4
2022-11-29T04:30:45.146Z,79.4
2022-11-29T04:31:44.965Z,79.4
2022-11-29T04:32:44.983Z,79.4
2022-11-29T04:33:44.977Z,79.4
2022-11-29T04:34:46.267Z,79.6
2022-11-29T04:35:45.003Z,79.7
2022-11-29T04:36:45.081Z,79.6
2022-11-29T04:37:45.009Z,79.4
2022-11-29T04:38:45.022Z,79.4
2022-11-29T04:39:45.024Z,79.3
2022-11-29T04:40:45.048Z,79.4
2022-11-29T04:41:45.044Z,79.7
2022-11-29T04:42:45.046Z,79.5
2022-11-29T04:43:45.052Z,79.6
2022-11-29T04:44:45.924Z,79.5
2022-11-29T04:45:45.064Z,79.5
2022-11-29T04:46:45.229Z,79.5
2022-11-29T04:47:45.074Z,79.5
2022-11-29T04:48:45.082Z,79.5
2022-11-29T04:49:45.086Z,79.5
2022-11-29T04:50:45.095Z,79.4
2022-11-29T04:51:45.104Z,79.7
2022-11-29T04:52:45.103Z,79.6
2022-11-29T04:53:45.117Z,79.7
2022-11-29T04:54:46.318Z,79.7
2022-11-29T04:55:45.124Z,79.8
2022-11-29T04:56:45.135Z,79.7
2022-11-29T04:57:45.139Z,79.8
2022-11-29T04:58:45.149Z,79.4
2022-11-29T04:59:45.156Z,79.5
2022-11-29T05:00:45.159Z,79.4
2022-11-29T05:01:45.352Z,79.3
2022-11-29T05:02:45.386Z,79.5
2022-11-29T05:03:47.582Z,79.4
2022-11-29T05:04:46.209Z,79.5
2022-11-29T05:05:45.209Z,79.6
2022-11-29T05:06:45.209Z,79.5
2022-11-29T05:07:45.342Z,79.6
2022-11-29T05:08:45.230Z,79.7
2022-11-29T05:09:45.234Z,79.6
2022-11-29T05:10:45.239Z,79.7
2022-11-29T05:11:45.249Z,79.5
2022-11-29T05:12:45.259Z,79.5
2022-11-29T05:13:45.259Z,79.4
2022-11-29T05:14:46.003Z,79.4
2022-11-29T05:15:45.420Z,79.3
2022-11-29T05:16:45.284Z,79.3
2022-11-29T05:17:45.289Z,79.4
2022-11-29T05:18:45.311Z,79.4
2022-11-29T05:19:45.304Z,79.4
2022-11-29T05:20:45.315Z,79.4
2022-11-29T05:21:45.321Z,79.4
2022-11-29T05:22:45.329Z,79.3
2022-11-29T05:23:45.363Z,79.2
2022-11-29T05:24:46.509Z,79.2
2022-11-29T05:25:45.351Z,79.1
2022-11-29T05:26:45.352Z,79.3
2022-11-29T05:27:45.358Z,79.3
2022-11-29T05:28:45.363Z,79.3
2022-11-29T05:29:45.376Z,79.1
2022-11-29T05:30:45.391Z,79.1
2022-11-29T05:31:45.391Z,79.1
2022-11-29T05:32:45.400Z,79.1
2022-11-29T05:33:45.417Z,79.4
2022-11-29T05:34:45.671Z,79.4
2022-11-29T05:35:45.421Z,79.2
2022-11-29T05:36:45.432Z,79.5
2022-11-29T05:37:45.443Z,79.4
2022-11-29T05:38:45.452Z,79.4
2022-11-29T05:39:45.457Z,79.3
2022-11-29T05:40:45.470Z,79.2
2022-11-29T05:41:45.469Z,79.2
2022-11-29T05:42:45.480Z,79.3
2022-11-29T05:43:45.485Z,79.3
2022-11-29T05:44:46.482Z,79.3
2022-11-29T05:45:45.499Z,79.2
2022-11-29T05:46:45.747Z,79.1
2022-11-29T05:47:45.512Z,79.1
2022-11-29T05:48:45.547Z,79.2
2022-11-29T05:49:45.530Z,79.2
2022-11-29T05:50:45.532Z,79.4
2022-11-29T05:51:45.537Z,79.3
2022-11-29T05:52:45.547Z,79.5
2022-11-29T05:53:45.550Z,79.4
2022-11-29T05:54:46.424Z,79.2
2022-11-29T05:55:45.564Z,79.3
2022-11-29T05:56:45.573Z,79.3
2022-11-29T05:57:45.577Z,79.3
2022-11-29T05:58:45.586Z,79.3
2022-11-29T05:59:45.594Z,79.1
2022-11-29T06:00:45.595Z,79.2
2022-11-29T06:01:45.741Z,79.2
2022-11-29T06:02:45.729Z,79.3
2022-11-29T06:03:45.607Z,79.4
2022-11-29T06:04:46.644Z,79.3
2022-11-29T06:05:45.625Z,79.3
2022-11-29T06:06:45.639Z,79.3
2022-11-29T06:07:45.805Z,79.4
2022-11-29T06:08:45.645Z,79.4
2022-11-29T06:09:45.642Z,79.2
2022-11-29T06:10:45.659Z,79.1
2022-11-29T06:11:45.651Z,79.2
2022-11-29T06:12:45.664Z,79.1
2022-11-29T06:13:45.667Z,79.1
2022-11-29T06:14:47.035Z,79.2
2022-11-29T06:15:45.844Z,79.2
2022-11-29T06:16:45.688Z,79.3
2022-11-29T06:17:45.700Z,79.3
2022-11-29T06:18:45.703Z,79.3
2022-11-29T06:19:45.707Z,79.4
2022-11-29T06:20:45.710Z,79.3
2022-11-29T06:21:45.718Z,79.3
2022-11-29T06:22:45.730Z,79.3
2022-11-29T06:23:45.733Z,79.3
2022-11-29T06:24:46.782Z,79.4
2022-11-29T06:25:45.742Z,79.5
2022-11-29T06:26:45.750Z,79.5
2022-11-29T06:27:45.753Z,79.6
2022-11-29T06:28:45.767Z,79.6
2022-11-29T06:29:45.773Z,79.5
2022-11-29T06:30:45.775Z,79.5
2022-11-29T06:31:45.984Z,79.5
2022-11-29T06:32:45.805Z,79.5
2022-11-29T06:33:45.797Z,79.5
2022-11-29T06:34:46.802Z,79.5
2022-11-29T06:35:45.883Z,79.5
2022-11-29T06:36:45.814Z,79.5
2022-11-29T06:37:45.821Z,79.2
2022-11-29T06:38:45.829Z,79.4
2022-11-29T06:39:45.830Z,79.4
2022-11-29T06:40:45.843Z,79.4
2022-11-29T06:41:45.842Z,79.5
2022-11-29T06:42:45.849Z,79.5
2022-11-29T06:43:45.861Z,79.5
2022-11-29T06:44:46.926Z,79.4
2022-11-29T06:45:45.870Z,79.5
2022-11-29T06:46:46.150Z,79.5
2022-11-29T06:47:45.874Z,79.6
2022-11-29T06:48:45.926Z,79.6
2022-11-29T06:49:45.893Z,79.5
2022-11-29T06:50:45.905Z,79.5
2022-11-29T06:51:45.908Z,79.4
2022-11-29T06:52:45.915Z,79.4
2022-11-29T06:53:45.923Z,79.3
2022-11-29T06:54:47.217Z,79.3
2022-11-29T06:55:45.929Z,79.5
2022-11-29T06:56:45.933Z,79.3
2022-11-29T06:57:45.949Z,79.4
2022-11-29T06:58:45.953Z,79.3
2022-11-29T06:59:45.952Z,79.3
2022-11-29T07:00:46.097Z,79.3
2022-11-29T07:01:46.150Z,79.3
2022-11-29T07:02:45.974Z,79.4
2022-11-29T07:03:45.980Z,79.4
2022-11-29T07:04:46.981Z,79.4
2022-11-29T07:05:45.998Z,79.5
2022-11-29T07:06:46.011Z,79.5
2022-11-29T07:07:46.354Z,79.4
2022-11-29T07:08:46.025Z,79.6
2022-11-29T07:09:46.080Z,79.4
2022-11-29T07:10:46.044Z,79.5
2022-11-29T07:11:46.039Z,79.3
2022-11-29T07:12:46.053Z,79.3
2022-11-29T07:13:46.060Z,79.3
2022-11-29T07:14:46.930Z,79.3
2022-11-29T07:15:46.076Z,79.4
2022-11-29T07:16:46.074Z,79.3
2022-11-29T07:17:46.083Z,79.3
2022-11-29T07:18:46.104Z,79.4
2022-11-29T07:19:46.131Z,79.5
2022-11-29T07:20:46.214Z,79.5
2022-11-29T07:21:46.115Z,79.4
2022-11-29T07:22:46.110Z,79.4
2022-11-29T07:23:46.122Z,79.5
2022-11-29T07:24:47.094Z,79.3
2022-11-29T07:25:46.131Z,79.2
2022-11-29T07:26:46.136Z,79.3
2022-11-29T07:27:46.144Z,79.4
2022-11-29T07:28:46.151Z,79.4
2022-11-29T07:29:46.155Z,79.4
2022-11-29T07:30:46.163Z,79.2
2022-11-29T07:31:46.405Z,79.2
2022-11-29T07:33:00.252Z,79.3
2022-11-29T07:33:46.180Z,79.2
2022-11-29T07:34:47.211Z,79.2
2022-11-29T07:35:46.194Z,79.1
2022-11-29T07:36:46.208Z,79.1
2022-11-29T07:37:46.216Z,79.1
2022-11-29T07:38:46.212Z,79.1
2022-11-29T07:39:46.221Z,79.1
2022-11-29T07:40:46.229Z,79.0
2022-11-29T07:41:46.230Z,79.0
2022-11-29T07:42:46.243Z,79.2
2022-11-29T07:43:46.257Z,79.1
2022-11-29T07:44:47.391Z,79.1
2022-11-29T07:45:46.262Z,79.3
2022-11-29T07:46:46.452Z,79.3
2022-11-29T07:47:46.312Z,79.1
2022-11-29T07:48:46.296Z,78.9
2022-11-29T07:49:46.294Z,78.9
2022-11-29T07:50:46.301Z,78.9
2022-11-29T07:51:46.306Z,78.9
2022-11-29T07:52:46.315Z,78.9
2022-11-29T07:53:46.319Z,79.1
2022-11-29T07:54:47.453Z,79.1
2022-11-29T07:55:46.334Z,78.9
2022-11-29T07:56:46.348Z,78.9
2022-11-29T07:57:46.360Z,78.8
2022-11-29T07:58:46.548Z,78.6
2022-11-29T07:59:47.232Z,78.8
2022-11-29T08:00:46.621Z,78.6
2022-11-29T08:01:46.587Z,78.8
2022-11-29T08:02:46.378Z,78.9
2022-11-29T08:03:46.386Z,78.8
2022-11-29T08:04:47.483Z,78.6
2022-11-29T08:05:46.407Z,78.6
2022-11-29T08:06:46.416Z,78.7
2022-11-29T08:07:46.853Z,78.6
2022-11-29T08:08:46.439Z,78.6
2022-11-29T08:09:47.565Z,78.4
2022-11-29T08:10:46.451Z,78.4
2022-11-29T08:11:46.449Z,78.4
2022-11-29T08:12:46.449Z,78.4
2022-11-29T08:13:46.453Z,78.4
2022-11-29T08:14:47.521Z,78.2
2022-11-29T08:15:46.464Z,78.4
2022-11-29T08:16:46.643Z,78.4
2022-11-29T08:17:46.487Z,78.2
2022-11-29T08:18:46.489Z,78.3
2022-11-29T08:19:46.497Z,78.1
2022-11-29T08:20:46.622Z,78.0
2022-11-29T08:21:46.506Z,78.0
2022-11-29T08:22:46.518Z,77.9
2022-11-29T08:23:46.516Z,77.9
2022-11-29T08:24:48.039Z,78.0
2022-11-29T08:25:46.528Z,77.8
2022-11-29T08:26:46.546Z,77.8
2022-11-29T08:27:46.540Z,77.9
2022-11-29T08:28:46.549Z,77.9
2022-11-29T08:29:46.557Z,77.6
2022-11-29T08:30:46.563Z,77.6
2022-11-29T08:31:46.838Z,77.7
2022-11-29T08:32:52.052Z,77.8
2022-11-29T08:33:46.603Z,77.6
2022-11-29T08:34:47.735Z,77.7
2022-11-29T08:35:46.602Z,77.9
2022-11-29T08:36:46.613Z,77.7
2022-11-29T08:37:46.625Z,77.6
2022-11-29T08:38:46.641Z,77.5
2022-11-29T08:39:46.634Z,77.4
2022-11-29T08:40:46.643Z,77.5
2022-11-29T08:41:46.649Z,77.4
2022-11-29T08:42:46.652Z,77.4
2022-11-29T08:43:46.667Z,77.4
2022-11-29T08:44:47.479Z,77.2
2022-11-29T08:45:46.825Z,77.2
2022-11-29T08:46:46.710Z,77.5
2022-11-29T08:47:46.690Z,77.5
2022-11-29T08:48:46.706Z,77.3
2022-11-29T08:49:46.714Z,77.4
2022-11-29T08:50:46.713Z,77.1
2022-11-29T08:51:46.728Z,77.2
2022-11-29T08:52:46.729Z,77.2
2022-11-29T08:53:46.737Z,77.1
2022-11-29T08:54:47.774Z,77.3
2022-11-29T08:55:46.870Z,77.3
2022-11-29T08:57:37.789Z,77.2
2022-11-29T08:57:46.778Z,77.4
2022-11-29T08:58:46.776Z,77.3
2022-11-29T08:59:46.793Z,77.3
2022-11-29T09:00:47.447Z,77.2
2022-11-29T09:01:47.029Z,77.3
2022-11-29T09:02:46.805Z,77.4
2022-11-29T09:03:46.852Z,77.3
2022-11-29T09:04:47.388Z,77.2
2022-11-29T09:05:46.826Z,77.3
2022-11-29T09:06:46.843Z,77.0
2022-11-29T09:07:47.101Z,77.1
2022-11-29T09:08:46.853Z,77.0
2022-11-29T09:09:46.860Z,76.9
2022-11-29T09:10:46.866Z,76.9
2022-11-29T09:11:49.992Z,76.6
2022-11-29T09:12:46.885Z,76.8
2022-11-29T09:13:46.881Z,76.7
2022-11-29T09:14:47.372Z,76.7
2022-11-29T09:15:46.907Z,76.7
2022-11-29T09:16:47.089Z,76.7
2022-11-29T09:17:46.911Z,76.6
2022-11-29T09:18:52.408Z,76.6
2022-11-29T09:19:46.919Z,76.6
2022-11-29T09:20:46.930Z,76.7
2022-11-29T09:21:46.945Z,76.7
2022-11-29T09:22:46.942Z,76.7
2022-11-29T09:23:46.957Z,76.6
2022-11-29T09:24:47.994Z,76.6
2022-11-29T09:25:46.969Z,76.4
2022-11-29T09:26:46.968Z,76.3
2022-11-29T09:27:46.973Z,76.5
2022-11-29T09:28:46.980Z,76.3
2022-11-29T09:29:46.990Z,76.3
2022-11-29T09:30:46.994Z,76.4
2022-11-29T09:31:47.295Z,76.5
2022-11-29T09:32:47.013Z,76.5
2022-11-29T09:33:47.023Z,76.4
2022-11-29T09:34:47.936Z,76.5
2022-11-29T09:35:47.030Z,76.4
2022-11-29T09:36:47.038Z,76.4
2022-11-29T09:37:47.045Z,76.4
2022-11-29T09:38:47.048Z,76.3
2022-11-29T09:39:47.060Z,76.6
2022-11-29T09:40:47.073Z,76.2
2022-11-29T09:41:49.073Z,76.2
2022-11-29T09:42:47.113Z,76.2
2022-11-29T09:43:47.091Z,76.2
2022-11-29T09:44:48.183Z,76.3
2022-11-29T09:45:47.250Z,76.1
2022-11-29T09:46:47.101Z,76.2
2022-11-29T09:47:47.228Z,76.2
2022-11-29T09:48:47.114Z,76.1
2022-11-29T09:49:47.124Z,76.0
2022-11-29T09:50:47.129Z,75.9
2022-11-29T09:51:47.135Z,75.9
2022-11-29T09:52:47.151Z,76.0
2022-11-29T09:53:47.151Z,75.9
2022-11-29T09:54:48.089Z,76.2
2022-11-29T09:55:47.173Z,76.2
2022-11-29T09:56:47.234Z,76.0
2022-11-29T09:57:47.186Z,75.9
2022-11-29T09:58:47.344Z,76.1
2022-11-29T09:59:47.201Z,76.0
2022-11-29T10:00:47.447Z,76.0
2022-11-29T10:01:47.234Z,75.9
2022-11-29T10:02:47.376Z,75.9
2022-11-29T10:03:47.235Z,75.8
2022-11-29T10:04:47.691Z,75.7
2022-11-29T10:05:47.243Z,75.7
2022-11-29T10:06:47.261Z,75.8
2022-11-29T10:07:47.464Z,75.7
2022-11-29T10:08:47.271Z,75.7
2022-11-29T10:09:47.274Z,75.6
2022-11-29T10:10:47.278Z,75.5
2022-11-29T10:11:47.282Z,75.3
2022-11-29T10:12:47.291Z,75.4
2022-11-29T10:13:47.292Z,75.4
2022-11-29T10:14:48.282Z,75.4
2022-11-29T10:15:47.317Z,75.3
2022-11-29T10:16:47.498Z,75.4
2022-11-29T10:17:47.326Z,75.3
2022-11-29T10:18:47.343Z,75.4
2022-11-29T10:19:47.340Z,75.3
2022-11-29T10:20:49.602Z,75.4
2022-11-29T10:21:47.346Z,75.6
2022-11-29T10:22:47.358Z,75.7
2022-11-29T10:23:47.361Z,75.5
2022-11-29T10:24:48.157Z,75.5
2022-11-29T10:25:47.411Z,75.5
2022-11-29T10:26:47.380Z,75.5
2022-11-29T10:27:47.394Z,75.5
2022-11-29T10:28:47.395Z,75.5
2022-11-29T10:29:47.401Z,75.6
2022-11-29T10:30:47.616Z,75.7
2022-11-29T10:31:47.420Z,75.8
2022-11-29T10:32:47.440Z,75.7
2022-11-29T10:33:47.440Z,75.7
2022-11-29T10:34:48.167Z,75.8
2022-11-29T10:35:47.454Z,75.8
2022-11-29T10:36:47.465Z,75.7
2022-11-29T10:38:30.080Z,75.9
2022-11-29T10:38:47.483Z,75.7
2022-11-29T10:39:47.498Z,75.9
2022-11-29T10:40:47.613Z,75.9
2022-11-29T10:41:47.502Z,75.9
2022-11-29T10:42:47.559Z,75.9
2022-11-29T10:43:47.518Z,75.7
2022-11-29T10:44:47.987Z,75.8
2022-11-29T10:45:50.882Z,75.8
2022-11-29T10:46:47.536Z,75.8
2022-11-29T10:47:47.567Z,75.8
2022-11-29T10:48:47.556Z,75.7
2022-11-29T10:49:47.558Z,75.7
2022-11-29T10:50:47.557Z,75.7
2022-11-29T10:51:47.574Z,75.7
2022-11-29T10:52:47.577Z,75.7
2022-11-29T10:53:47.587Z,75.7
2022-11-29T10:54:48.731Z,75.8
2022-11-29T10:55:47.597Z,75.7
2022-11-29T10:56:47.600Z,75.8
2022-11-29T10:57:47.642Z,75.7
2022-11-29T10:58:47.616Z,75.8
2022-11-29T10:59:47.690Z,75.9
2022-11-29T11:00:47.721Z,75.8
2022-11-29T11:01:47.800Z,75.8
2022-11-29T11:02:47.696Z,75.7
2022-11-29T11:03:53.559Z,75.7
2022-11-29T11:04:48.781Z,75.6
2022-11-29T11:05:47.820Z,75.6
2022-11-29T11:06:47.688Z,75.6
2022-11-29T11:07:47.828Z,75.4
2022-11-29T11:08:47.713Z,75.4
2022-11-29T11:09:47.707Z,75.3
2022-11-29T11:11:01.615Z,75.1
2022-11-29T11:11:47.724Z,75.1
2022-11-29T11:12:47.721Z,75.2
2022-11-29T11:13:47.724Z,75.2
2022-11-29T11:14:48.563Z,75.4
2022-11-29T11:15:47.743Z,75.3
2022-11-29T11:16:47.840Z,75.3
2022-11-29T11:17:47.761Z,75.2
2022-11-29T11:18:47.769Z,75.4
2022-11-29T11:19:47.787Z,75.5
2022-11-29T11:20:47.778Z,75.6
2022-11-29T11:21:47.790Z,75.6
2022-11-29T11:22:47.826Z,75.5
2022-11-29T11:23:47.814Z,75.5
2022-11-29T11:24:48.267Z,75.4
2022-11-29T11:25:47.819Z,75.4
2022-11-29T11:26:47.821Z,75.5
2022-11-29T11:27:47.836Z,75.5
2022-11-29T11:28:47.837Z,75.3
2022-11-29T11:29:47.851Z,75.3
2022-11-29T11:30:47.948Z,75.4
2022-11-29T11:31:47.861Z,75.4
2022-11-29T11:32:47.866Z,75.2
2022-11-29T11:33:47.878Z,75.4
2022-11-29T11:34:48.105Z,75.4
2022-11-29T11:35:47.899Z,75.4
2022-11-29T11:36:47.902Z,75.5
2022-11-29T11:37:47.908Z,75.6
2022-11-29T11:38:47.912Z,75.4
2022-11-29T11:39:48.105Z,75.4
2022-11-29T11:40:47.925Z,75.2
2022-11-29T11:41:47.934Z,75.2
2022-11-29T11:42:47.943Z,75.0
2022-11-29T11:43:47.948Z,75.1
2022-11-29T11:44:48.978Z,75.3
2022-11-29T11:45:48.085Z,75.4
2022-11-29T11:46:48.217Z,75.4
2022-11-29T11:47:47.974Z,75.4
2022-11-29T11:48:47.982Z,75.5
2022-11-29T11:49:47.986Z,75.6
2022-11-29T11:50:48.001Z,75.6
2022-11-29T11:51:48.013Z,75.8
2022-11-29T11:52:51.059Z,75.8
2022-11-29T11:53:48.032Z,75.6
2022-11-29T11:54:48.028Z,75.6
2022-11-29T11:55:48.103Z,75.6
2022-11-29T11:56:48.052Z,75.7
2022-11-29T11:57:48.080Z,75.8
2022-11-29T11:58:48.065Z,75.7
2022-11-29T11:59:48.063Z,75.7
2022-11-29T12:01:06.621Z,75.5
2022-11-29T12:01:48.086Z,75.7
2022-11-29T12:02:48.423Z,75.5
2022-11-29T12:03:48.115Z,75.5
2022-11-29T12:04:48.103Z,75.6
2022-11-29T12:05:48.109Z,75.6
2022-11-29T12:06:48.127Z,75.7
2022-11-29T12:08:08.788Z,75.8
2022-11-29T12:08:48.321Z,75.8
2022-11-29T12:09:48.141Z,75.9
2022-11-29T12:10:48.152Z,75.8
2022-11-29T12:11:48.167Z,75.9
2022-11-29T12:12:48.160Z,75.7
2022-11-29T12:13:48.176Z,76.0
2022-11-29T12:14:48.831Z,75.9
2022-11-29T12:15:48.371Z,75.8
2022-11-29T12:16:48.230Z,75.8
2022-11-29T12:17:48.203Z,75.7
2022-11-29T12:18:48.214Z,75.5
2022-11-29T12:19:48.225Z,75.6
2022-11-29T12:20:48.237Z,75.8
2022-11-29T12:21:48.255Z,75.7
2022-11-29T12:22:48.821Z,75.7
2022-11-29T12:23:48.269Z,75.7
2022-11-29T12:24:48.740Z,75.8
2022-11-29T12:25:48.466Z,75.8
2022-11-29T12:26:59.471Z,75.8
2022-11-29T12:27:48.328Z,75.9
2022-11-29T12:28:48.302Z,76.1
2022-11-29T12:29:48.513Z,75.9
2022-11-29T12:30:48.400Z,75.7
2022-11-29T12:31:48.316Z,75.6
2022-11-29T12:32:48.322Z,75.6
2022-11-29T12:33:48.333Z,75.7
2022-11-29T12:34:49.693Z,75.8
2022-11-29T12:35:48.349Z,75.9
2022-11-29T12:36:48.365Z,75.8
2022-11-29T12:37:48.371Z,75.8
2022-11-29T12:38:48.392Z,75.9
2022-11-29T12:39:48.380Z,75.8
2022-11-29T12:40:48.403Z,75.9
2022-11-29T12:41:54.492Z,75.7
2022-11-29T12:42:48.433Z,75.7
2022-11-29T12:43:48.427Z,75.8
2022-11-29T12:44:49.027Z,75.8
2022-11-29T12:45:48.430Z,75.9
2022-11-29T12:46:48.538Z,76.1
2022-11-29T12:47:52.522Z,75.8
2022-11-29T12:48:48.464Z,75.9
2022-11-29T12:49:48.543Z,75.9
2022-11-29T12:50:48.482Z,75.9
2022-11-29T12:51:48.495Z,76.0
2022-11-29T12:52:48.493Z,76.0
2022-11-29T12:53:48.498Z,76.3
2022-11-29T12:54:48.784Z,76.3
2022-11-29T12:55:48.530Z,76.2
2022-11-29T12:56:48.533Z,76.2
2022-11-29T12:57:48.546Z,76.1
2022-11-29T12:58:48.550Z,76.2
2022-11-29T12:59:48.556Z,76.3
2022-11-29T13:00:48.574Z,76.4
2022-11-29T13:01:48.765Z,76.5
2022-11-29T13:02:48.774Z,76.7
2022-11-29T13:03:48.605Z,76.8
2022-11-29T13:04:49.872Z,76.7
2022-11-29T13:05:48.603Z,77.1
2022-11-29T13:06:48.610Z,76.8
2022-11-29T13:07:48.714Z,76.7
2022-11-29T13:08:48.634Z,76.7
2022-11-29T13:09:48.851Z,76.8
2022-11-29T13:10:48.646Z,76.8
2022-11-29T13:11:48.661Z,76.9
2022-11-29T13:12:48.664Z,76.9
2022-11-29T13:13:48.668Z,76.8
2022-11-29T13:14:48.681Z,76.8
2022-11-29T13:15:50.154Z,76.9
2022-11-29T13:16:48.850Z,76.8
2022-11-29T13:17:48.701Z,76.6
2022-11-29T13:18:48.706Z,76.7
2022-11-29T13:19:48.718Z,76.8
2022-11-29T13:20:48.721Z,76.8
2022-11-29T13:21:48.733Z,76.8
2022-11-29T13:22:48.745Z,76.8
2022-11-29T13:24:09.591Z,76.9
2022-11-29T13:24:50.005Z,77.0
2022-11-29T13:25:48.788Z,77.0
2022-11-29T13:26:48.770Z,77.1
2022-11-29T13:27:48.772Z,77.1
2022-11-29T13:28:48.776Z,77.1
2022-11-29T13:29:48.801Z,77.0
2022-11-29T13:30:49.057Z,77.2
2022-11-29T13:31:48.799Z,77.5
2022-11-29T13:32:48.813Z,77.2
2022-11-29T13:33:48.810Z,77.3
2022-11-29T13:34:48.821Z,77.4
2022-11-29T13:35:48.814Z,77.4